sensor_id;sensor_type;location;lat;lon;timestamp;P1;durP1;ratioP1;P2;durP2;ratioP2
17091;SDS011;8661;45.700;4.880;2022-10-29T00:01:05;12.73;;;7.13;;
17091;SDS011;8661;45.700;4.880;2022-10-29T00:03:31;13.63;;;7.40;;
17091;SDS011;8661;45.700;4.880;2022-10-29T00:05:59;14.57;;;7.40;;
17091;SDS011;8661;45.700;4.880;2022-10-29T00:08:29;17.63;;;7.70;;
17091;SDS011;8661;45.700;4.880;2022-10-29T00:11:03;15.67;;;7.07;;
17091;SDS011;8661;45.700;4.880;2022-10-29T00:13:31;12.93;;;7.10;;
17091;SDS011;8661;45.700;4.880;2022-10-29T00:15:58;18.93;;;7.87;;
17091;SDS011;8661;45.700;4.880;2022-10-29T00:18:25;21.13;;;7.30;;
17091;SDS011;8661;45.700;4.880;2022-10-29T00:20:58;15.27;;;7.67;;
17091;SDS011;8661;45.700;4.880;2022-10-29T00:23:25;15.87;;;7.90;;
17091;SDS011;8661;45.700;4.880;2022-10-29T00:25:55;17.23;;;7.53;;
17091;SDS011;8661;45.700;4.880;2022-10-29T00:28:23;19.30;;;7.73;;
17091;SDS011;8661;45.700;4.880;2022-10-29T00:30:50;12.97;;;7.13;;
17091;SDS011;8661;45.700;4.880;2022-10-29T00:33:16;14.17;;;7.10;;
17091;SDS011;8661;45.700;4.880;2022-10-29T00:35:53;19.43;;;8.10;;
17091;SDS011;8661;45.700;4.880;2022-10-29T00:38:20;17.53;;;7.43;;
17091;SDS011;8661;45.700;4.880;2022-10-29T00:40:47;15.10;;;7.87;;
17091;SDS011;8661;45.700;4.880;2022-10-29T00:43:16;16.73;;;7.60;;
17091;SDS011;8661;45.700;4.880;2022-10-29T00:45:45;18.93;;;8.17;;
17091;SDS011;8661;45.700;4.880;2022-10-29T00:48:15;20.57;;;8.27;;
17091;SDS011;8661;45.700;4.880;2022-10-29T00:50:42;13.53;;;7.97;;
17091;SDS011;8661;45.700;4.880;2022-10-29T00:53:10;19.50;;;8.37;;
17091;SDS011;8661;45.700;4.880;2022-10-29T00:55:38;15.27;;;8.10;;
17091;SDS011;8661;45.700;4.880;2022-10-29T00:58:05;16.50;;;8.90;;
17091;SDS011;8661;45.700;4.880;2022-10-29T01:00:33;24.57;;;8.60;;
17091;SDS011;8661;45.700;4.880;2022-10-29T01:03:03;18.97;;;8.87;;
17091;SDS011;8661;45.700;4.880;2022-10-29T01:05:30;20.60;;;7.93;;
17091;SDS011;8661;45.700;4.880;2022-10-29T01:08:00;22.10;;;8.23;;
17091;SDS011;8661;45.700;4.880;2022-10-29T01:10:31;21.77;;;8.90;;
17091;SDS011;8661;45.700;4.880;2022-10-29T01:13:13;19.20;;;9.33;;
17091;SDS011;8661;45.700;4.880;2022-10-29T01:15:54;18.37;;;9.47;;
17091;SDS011;8661;45.700;4.880;2022-10-29T01:18:29;15.30;;;9.60;;
17091;SDS011;8661;45.700;4.880;2022-10-29T01:27:12;15.17;;;8.87;;
17091;SDS011;8661;45.700;4.880;2022-10-29T01:30:05;17.97;;;9.63;;
17091;SDS011;8661;45.700;4.880;2022-10-29T01:32:52;22.90;;;9.90;;
17091;SDS011;8661;45.700;4.880;2022-10-29T01:35:29;30.07;;;10.10;;
17091;SDS011;8661;45.700;4.880;2022-10-29T01:38:04;15.93;;;8.97;;
17091;SDS011;8661;45.700;4.880;2022-10-29T01:40:38;19.80;;;9.50;;
17091;SDS011;8661;45.700;4.880;2022-10-29T01:43:13;21.27;;;9.77;;
17091;SDS011;8661;45.700;4.880;2022-10-29T01:45:44;16.73;;;9.27;;
17091;SDS011;8661;45.700;4.880;2022-10-29T01:48:18;24.10;;;10.43;;
17091;SDS011;8661;45.700;4.880;2022-10-29T01:50:49;20.33;;;10.23;;
17091;SDS011;8661;45.700;4.880;2022-10-29T01:53:20;18.63;;;10.10;;
17091;SDS011;8661;45.700;4.880;2022-10-29T01:55:47;16.10;;;9.80;;
17091;SDS011;8661;45.700;4.880;2022-10-29T01:58:14;20.97;;;8.70;;
17091;SDS011;8661;45.700;4.880;2022-10-29T02:00:45;22.27;;;10.03;;
17091;SDS011;8661;45.700;4.880;2022-10-29T02:03:26;18.60;;;9.33;;
17091;SDS011;8661;45.700;4.880;2022-10-29T02:05:59;23.87;;;10.97;;
17091;SDS011;8661;45.700;4.880;2022-10-29T02:08:37;19.63;;;9.33;;
17091;SDS011;8661;45.700;4.880;2022-10-29T02:11:10;16.97;;;9.77;;
17091;SDS011;8661;45.700;4.880;2022-10-29T02:13:43;21.60;;;9.77;;
17091;SDS011;8661;45.700;4.880;2022-10-29T02:16:15;19.87;;;9.03;;
17091;SDS011;8661;45.700;4.880;2022-10-29T02:18:45;17.53;;;8.67;;
17091;SDS011;8661;45.700;4.880;2022-10-29T02:21:13;21.80;;;9.63;;
17091;SDS011;8661;45.700;4.880;2022-10-29T02:23:41;17.43;;;9.33;;
17091;SDS011;8661;45.700;4.880;2022-10-29T02:26:08;15.43;;;8.83;;
17091;SDS011;8661;45.700;4.880;2022-10-29T02:28:35;24.17;;;9.57;;
17091;SDS011;8661;45.700;4.880;2022-10-29T02:31:02;16.40;;;9.20;;
17091;SDS011;8661;45.700;4.880;2022-10-29T02:33:29;18.63;;;9.37;;
17091;SDS011;8661;45.700;4.880;2022-10-29T02:35:58;17.43;;;8.87;;
17091;SDS011;8661;45.700;4.880;2022-10-29T02:38:24;16.43;;;9.43;;
17091;SDS011;8661;45.700;4.880;2022-10-29T02:40:51;20.13;;;9.63;;
17091;SDS011;8661;45.700;4.880;2022-10-29T02:43:18;22.17;;;10.03;;
17091;SDS011;8661;45.700;4.880;2022-10-29T02:45:45;20.87;;;9.97;;
17091;SDS011;8661;45.700;4.880;2022-10-29T02:48:12;20.90;;;10.00;;
17091;SDS011;8661;45.700;4.880;2022-10-29T02:50:39;16.20;;;10.57;;
17091;SDS011;8661;45.700;4.880;2022-10-29T02:53:07;18.70;;;9.33;;
17091;SDS011;8661;45.700;4.880;2022-10-29T02:55:34;18.13;;;10.00;;
17091;SDS011;8661;45.700;4.880;2022-10-29T02:58:00;18.90;;;9.97;;
17091;SDS011;8661;45.700;4.880;2022-10-29T03:00:27;20.23;;;9.50;;
17091;SDS011;8661;45.700;4.880;2022-10-29T03:02:54;24.87;;;10.57;;
17091;SDS011;8661;45.700;4.880;2022-10-29T03:05:21;22.10;;;10.73;;
17091;SDS011;8661;45.700;4.880;2022-10-29T03:07:48;18.37;;;9.47;;
17091;SDS011;8661;45.700;4.880;2022-10-29T03:10:16;23.60;;;10.93;;
17091;SDS011;8661;45.700;4.880;2022-10-29T03:12:43;22.83;;;10.10;;
17091;SDS011;8661;45.700;4.880;2022-10-29T03:15:10;19.37;;;10.30;;
17091;SDS011;8661;45.700;4.880;2022-10-29T03:17:37;22.47;;;10.67;;
17091;SDS011;8661;45.700;4.880;2022-10-29T03:20:04;23.87;;;10.30;;
17091;SDS011;8661;45.700;4.880;2022-10-29T03:22:31;22.47;;;10.40;;
17091;SDS011;8661;45.700;4.880;2022-10-29T03:24:58;18.27;;;10.10;;
17091;SDS011;8661;45.700;4.880;2022-10-29T03:27:26;22.70;;;9.77;;
17091;SDS011;8661;45.700;4.880;2022-10-29T03:29:53;19.90;;;10.07;;
17091;SDS011;8661;45.700;4.880;2022-10-29T03:32:20;18.50;;;10.40;;
17091;SDS011;8661;45.700;4.880;2022-10-29T03:34:47;24.13;;;10.53;;
17091;SDS011;8661;45.700;4.880;2022-10-29T03:37:14;22.40;;;10.57;;
17091;SDS011;8661;45.700;4.880;2022-10-29T03:39:40;22.30;;;10.73;;
17091;SDS011;8661;45.700;4.880;2022-10-29T03:42:07;22.57;;;10.10;;
17091;SDS011;8661;45.700;4.880;2022-10-29T03:44:36;21.30;;;9.30;;
17091;SDS011;8661;45.700;4.880;2022-10-29T03:47:02;24.17;;;9.83;;
17091;SDS011;8661;45.700;4.880;2022-10-29T03:49:29;21.27;;;10.37;;
17091;SDS011;8661;45.700;4.880;2022-10-29T03:51:56;16.53;;;9.70;;
17091;SDS011;8661;45.700;4.880;2022-10-29T03:54:23;18.10;;;9.73;;
17091;SDS011;8661;45.700;4.880;2022-10-29T03:56:50;19.30;;;10.33;;
17091;SDS011;8661;45.700;4.880;2022-10-29T03:59:17;20.63;;;10.10;;
17091;SDS011;8661;45.700;4.880;2022-10-29T04:01:45;21.93;;;9.37;;
17091;SDS011;8661;45.700;4.880;2022-10-29T04:04:12;23.57;;;10.37;;
17091;SDS011;8661;45.700;4.880;2022-10-29T04:06:39;18.77;;;9.53;;
17091;SDS011;8661;45.700;4.880;2022-10-29T04:09:05;17.77;;;9.90;;
17091;SDS011;8661;45.700;4.880;2022-10-29T04:11:32;17.83;;;9.07;;
17091;SDS011;8661;45.700;4.880;2022-10-29T04:13:59;19.33;;;10.00;;
17091;SDS011;8661;45.700;4.880;2022-10-29T04:16:26;24.07;;;9.63;;
17091;SDS011;8661;45.700;4.880;2022-10-29T04:18:54;16.90;;;9.40;;
17091;SDS011;8661;45.700;4.880;2022-10-29T04:21:21;23.17;;;9.90;;
17091;SDS011;8661;45.700;4.880;2022-10-29T04:23:48;24.90;;;10.63;;
17091;SDS011;8661;45.700;4.880;2022-10-29T04:26:15;22.00;;;9.70;;
17091;SDS011;8661;45.700;4.880;2022-10-29T04:28:42;21.00;;;9.73;;
17091;SDS011;8661;45.700;4.880;2022-10-29T04:31:12;25.63;;;10.27;;
17091;SDS011;8661;45.700;4.880;2022-10-29T04:33:39;31.57;;;10.20;;
17091;SDS011;8661;45.700;4.880;2022-10-29T04:36:08;21.60;;;10.47;;
17091;SDS011;8661;45.700;4.880;2022-10-29T04:38:35;19.63;;;9.70;;
17091;SDS011;8661;45.700;4.880;2022-10-29T04:41:02;21.63;;;9.67;;
17091;SDS011;8661;45.700;4.880;2022-10-29T04:43:31;17.77;;;9.57;;
17091;SDS011;8661;45.700;4.880;2022-10-29T04:45:58;16.60;;;9.40;;
17091;SDS011;8661;45.700;4.880;2022-10-29T04:48:25;18.93;;;9.87;;
17091;SDS011;8661;45.700;4.880;2022-10-29T04:50:52;18.90;;;9.60;;
17091;SDS011;8661;45.700;4.880;2022-10-29T04:53:21;19.87;;;10.20;;
17091;SDS011;8661;45.700;4.880;2022-10-29T04:55:48;27.47;;;11.10;;
17091;SDS011;8661;45.700;4.880;2022-10-29T04:58:16;20.90;;;9.60;;
17091;SDS011;8661;45.700;4.880;2022-10-29T05:00:44;19.20;;;9.90;;
17091;SDS011;8661;45.700;4.880;2022-10-29T05:03:11;27.43;;;11.57;;
17091;SDS011;8661;45.700;4.880;2022-10-29T05:05:38;23.27;;;10.20;;
17091;SDS011;8661;45.700;4.880;2022-10-29T05:08:06;25.83;;;11.03;;
17091;SDS011;8661;45.700;4.880;2022-10-29T05:10:37;20.63;;;10.20;;
17091;SDS011;8661;45.700;4.880;2022-10-29T05:13:05;19.07;;;11.07;;
17091;SDS011;8661;45.700;4.880;2022-10-29T05:15:33;24.13;;;10.77;;
17091;SDS011;8661;45.700;4.880;2022-10-29T05:18:00;22.67;;;10.40;;
17091;SDS011;8661;45.700;4.880;2022-10-29T05:20:27;25.00;;;10.63;;
17091;SDS011;8661;45.700;4.880;2022-10-29T05:22:58;24.20;;;11.10;;
17091;SDS011;8661;45.700;4.880;2022-10-29T05:25:25;21.00;;;10.30;;
17091;SDS011;8661;45.700;4.880;2022-10-29T05:28:01;25.07;;;10.33;;
17091;SDS011;8661;45.700;4.880;2022-10-29T05:30:29;22.27;;;10.03;;
17091;SDS011;8661;45.700;4.880;2022-10-29T05:32:56;17.73;;;10.60;;
17091;SDS011;8661;45.700;4.880;2022-10-29T05:35:23;22.77;;;10.03;;
17091;SDS011;8661;45.700;4.880;2022-10-29T05:37:51;23.10;;;10.33;;
17091;SDS011;8661;45.700;4.880;2022-10-29T05:40:18;20.97;;;10.27;;
17091;SDS011;8661;45.700;4.880;2022-10-29T05:42:45;19.10;;;10.67;;
17091;SDS011;8661;45.700;4.880;2022-10-29T05:45:14;24.27;;;10.90;;
17091;SDS011;8661;45.700;4.880;2022-10-29T05:47:41;26.97;;;11.80;;
17091;SDS011;8661;45.700;4.880;2022-10-29T05:50:08;27.30;;;11.77;;
17091;SDS011;8661;45.700;4.880;2022-10-29T05:52:36;22.13;;;11.00;;
17091;SDS011;8661;45.700;4.880;2022-10-29T05:55:03;18.13;;;10.33;;
17091;SDS011;8661;45.700;4.880;2022-10-29T05:57:31;24.27;;;10.77;;
17091;SDS011;8661;45.700;4.880;2022-10-29T05:59:58;21.37;;;10.40;;
17091;SDS011;8661;45.700;4.880;2022-10-29T06:02:26;24.17;;;11.43;;
17091;SDS011;8661;45.700;4.880;2022-10-29T06:04:53;22.33;;;10.57;;
17091;SDS011;8661;45.700;4.880;2022-10-29T06:07:19;21.27;;;11.40;;
17091;SDS011;8661;45.700;4.880;2022-10-29T06:09:46;21.23;;;10.03;;
17091;SDS011;8661;45.700;4.880;2022-10-29T06:12:13;30.27;;;11.53;;
17091;SDS011;8661;45.700;4.880;2022-10-29T06:14:40;24.70;;;11.93;;
17091;SDS011;8661;45.700;4.880;2022-10-29T06:17:07;35.07;;;11.60;;
17091;SDS011;8661;45.700;4.880;2022-10-29T06:19:35;23.83;;;11.03;;
17091;SDS011;8661;45.700;4.880;2022-10-29T06:22:03;20.67;;;10.30;;
17091;SDS011;8661;45.700;4.880;2022-10-29T06:24:30;22.70;;;10.63;;
17091;SDS011;8661;45.700;4.880;2022-10-29T06:26:57;18.83;;;10.50;;
17091;SDS011;8661;45.700;4.880;2022-10-29T06:29:24;24.57;;;11.50;;
17091;SDS011;8661;45.700;4.880;2022-10-29T06:31:50;22.30;;;11.00;;
17091;SDS011;8661;45.700;4.880;2022-10-29T06:34:17;27.60;;;11.73;;
17091;SDS011;8661;45.700;4.880;2022-10-29T06:36:45;19.73;;;10.97;;
17091;SDS011;8661;45.700;4.880;2022-10-29T06:39:12;19.57;;;10.53;;
17091;SDS011;8661;45.700;4.880;2022-10-29T06:41:39;24.60;;;11.40;;
17091;SDS011;8661;45.700;4.880;2022-10-29T06:44:06;24.90;;;11.50;;
17091;SDS011;8661;45.700;4.880;2022-10-29T06:46:33;23.67;;;11.63;;
17091;SDS011;8661;45.700;4.880;2022-10-29T06:49:00;19.63;;;11.07;;
17091;SDS011;8661;45.700;4.880;2022-10-29T06:51:27;18.43;;;11.13;;
17091;SDS011;8661;45.700;4.880;2022-10-29T06:53:55;24.47;;;11.07;;
17091;SDS011;8661;45.700;4.880;2022-10-29T06:56:22;24.60;;;11.90;;
17091;SDS011;8661;45.700;4.880;2022-10-29T06:58:49;25.67;;;10.23;;
17091;SDS011;8661;45.700;4.880;2022-10-29T07:01:16;22.23;;;10.60;;
17091;SDS011;8661;45.700;4.880;2022-10-29T07:03:43;17.80;;;9.83;;
17091;SDS011;8661;45.700;4.880;2022-10-29T07:06:09;19.47;;;10.70;;
17091;SDS011;8661;45.700;4.880;2022-10-29T07:08:36;19.20;;;10.70;;
17091;SDS011;8661;45.700;4.880;2022-10-29T07:11:04;17.40;;;10.03;;
17091;SDS011;8661;45.700;4.880;2022-10-29T07:13:31;22.70;;;10.97;;
17091;SDS011;8661;45.700;4.880;2022-10-29T07:15:58;21.97;;;10.77;;
17091;SDS011;8661;45.700;4.880;2022-10-29T07:18:25;20.03;;;11.43;;
17091;SDS011;8661;45.700;4.880;2022-10-29T07:20:52;20.33;;;11.77;;
17091;SDS011;8661;45.700;4.880;2022-10-29T07:23:19;19.77;;;11.83;;
17091;SDS011;8661;45.700;4.880;2022-10-29T07:25:45;23.00;;;13.13;;
17091;SDS011;8661;45.700;4.880;2022-10-29T07:28:14;23.00;;;12.90;;
17091;SDS011;8661;45.700;4.880;2022-10-29T07:30:42;26.80;;;13.80;;
17091;SDS011;8661;45.700;4.880;2022-10-29T07:33:09;24.23;;;12.87;;
17091;SDS011;8661;45.700;4.880;2022-10-29T07:35:37;20.83;;;12.80;;
17091;SDS011;8661;45.700;4.880;2022-10-29T07:38:04;24.30;;;12.20;;
17091;SDS011;8661;45.700;4.880;2022-10-29T07:40:32;24.17;;;11.93;;
17091;SDS011;8661;45.700;4.880;2022-10-29T07:42:59;25.70;;;11.40;;
17091;SDS011;8661;45.700;4.880;2022-10-29T07:45:27;21.37;;;10.90;;
17091;SDS011;8661;45.700;4.880;2022-10-29T07:47:57;26.67;;;10.93;;
17091;SDS011;8661;45.700;4.880;2022-10-29T07:50:25;24.53;;;11.20;;
17091;SDS011;8661;45.700;4.880;2022-10-29T07:52:52;22.27;;;11.33;;
17091;SDS011;8661;45.700;4.880;2022-10-29T07:55:19;20.33;;;10.40;;
17091;SDS011;8661;45.700;4.880;2022-10-29T07:57:46;24.97;;;11.07;;
17091;SDS011;8661;45.700;4.880;2022-10-29T08:00:22;27.87;;;12.83;;
17091;SDS011;8661;45.700;4.880;2022-10-29T08:02:51;25.20;;;11.83;;
17091;SDS011;8661;45.700;4.880;2022-10-29T08:05:19;22.00;;;11.60;;
17091;SDS011;8661;45.700;4.880;2022-10-29T08:07:46;20.17;;;10.47;;
17091;SDS011;8661;45.700;4.880;2022-10-29T08:10:12;26.40;;;10.77;;
17091;SDS011;8661;45.700;4.880;2022-10-29T08:12:39;18.03;;;9.67;;
17091;SDS011;8661;45.700;4.880;2022-10-29T08:15:15;22.27;;;11.27;;
17091;SDS011;8661;45.700;4.880;2022-10-29T08:17:42;20.63;;;9.20;;
17091;SDS011;8661;45.700;4.880;2022-10-29T08:20:11;18.57;;;9.20;;
17091;SDS011;8661;45.700;4.880;2022-10-29T08:22:38;23.07;;;10.27;;
17091;SDS011;8661;45.700;4.880;2022-10-29T08:25:08;19.53;;;9.40;;
17091;SDS011;8661;45.700;4.880;2022-10-29T08:27:36;12.47;;;8.53;;
17091;SDS011;8661;45.700;4.880;2022-10-29T08:30:03;25.90;;;10.03;;
17091;SDS011;8661;45.700;4.880;2022-10-29T08:32:30;19.53;;;9.57;;
17091;SDS011;8661;45.700;4.880;2022-10-29T08:34:57;18.47;;;8.60;;
17091;SDS011;8661;45.700;4.880;2022-10-29T08:37:26;18.33;;;8.17;;
17091;SDS011;8661;45.700;4.880;2022-10-29T08:39:53;19.23;;;9.00;;
17091;SDS011;8661;45.700;4.880;2022-10-29T08:42:23;18.15;;;9.05;;
17091;SDS011;8661;45.700;4.880;2022-10-29T08:45:05;18.30;;;8.33;;
17091;SDS011;8661;45.700;4.880;2022-10-29T08:47:41;17.60;;;8.50;;
17091;SDS011;8661;45.700;4.880;2022-10-29T08:50:21;16.37;;;8.67;;
17091;SDS011;8661;45.700;4.880;2022-10-29T08:52:54;17.13;;;7.60;;
17091;SDS011;8661;45.700;4.880;2022-10-29T08:55:22;18.13;;;7.77;;
17091;SDS011;8661;45.700;4.880;2022-10-29T08:57:53;20.17;;;8.03;;
17091;SDS011;8661;45.700;4.880;2022-10-29T09:00:23;17.60;;;8.67;;
17091;SDS011;8661;45.700;4.880;2022-10-29T09:02:56;15.93;;;7.97;;
17091;SDS011;8661;45.700;4.880;2022-10-29T09:05:26;18.33;;;7.90;;
17091;SDS011;8661;45.700;4.880;2022-10-29T09:08:11;14.43;;;6.87;;
17091;SDS011;8661;45.700;4.880;2022-10-29T09:10:49;22.43;;;7.70;;
17091;SDS011;8661;45.700;4.880;2022-10-29T09:13:25;21.23;;;8.10;;
17091;SDS011;8661;45.700;4.880;2022-10-29T09:16:03;18.97;;;7.50;;
17091;SDS011;8661;45.700;4.880;2022-10-29T09:18:48;18.40;;;7.03;;
17091;SDS011;8661;45.700;4.880;2022-10-29T09:21:31;17.73;;;7.80;;
17091;SDS011;8661;45.700;4.880;2022-10-29T09:24:03;14.37;;;6.93;;
17091;SDS011;8661;45.700;4.880;2022-10-29T09:26:39;20.80;;;7.73;;
17091;SDS011;8661;45.700;4.880;2022-10-29T09:29:32;22.07;;;8.03;;
17091;SDS011;8661;45.700;4.880;2022-10-29T09:32:12;14.03;;;7.33;;
17091;SDS011;8661;45.700;4.880;2022-10-29T09:34:42;12.73;;;7.67;;
17091;SDS011;8661;45.700;4.880;2022-10-29T09:37:13;15.27;;;8.00;;
17091;SDS011;8661;45.700;4.880;2022-10-29T09:39:43;17.73;;;7.93;;
17091;SDS011;8661;45.700;4.880;2022-10-29T09:42:12;20.87;;;8.03;;
17091;SDS011;8661;45.700;4.880;2022-10-29T09:44:42;17.63;;;8.10;;
17091;SDS011;8661;45.700;4.880;2022-10-29T09:47:15;18.23;;;7.80;;
17091;SDS011;8661;45.700;4.880;2022-10-29T09:49:53;71.87;;;20.47;;
17091;SDS011;8661;45.700;4.880;2022-10-29T09:52:29;28.00;;;12.53;;
17091;SDS011;8661;45.700;4.880;2022-10-29T09:54:59;44.80;;;13.17;;
17091;SDS011;8661;45.700;4.880;2022-10-29T09:57:29;65.23;;;17.67;;
17091;SDS011;8661;45.700;4.880;2022-10-29T09:59:59;18.20;;;8.07;;
17091;SDS011;8661;45.700;4.880;2022-10-29T10:02:29;26.10;;;8.57;;
17091;SDS011;8661;45.700;4.880;2022-10-29T10:05:00;18.17;;;6.80;;
17091;SDS011;8661;45.700;4.880;2022-10-29T10:07:30;19.07;;;7.13;;
17091;SDS011;8661;45.700;4.880;2022-10-29T10:09:58;21.00;;;7.63;;
17091;SDS011;8661;45.700;4.880;2022-10-29T10:12:27;16.77;;;7.17;;
17091;SDS011;8661;45.700;4.880;2022-10-29T10:15:16;17.30;;;7.27;;
17091;SDS011;8661;45.700;4.880;2022-10-29T10:17:58;15.03;;;7.30;;
17091;SDS011;8661;45.700;4.880;2022-10-29T10:20:28;23.83;;;7.87;;
17091;SDS011;8661;45.700;4.880;2022-10-29T10:23:00;16.10;;;6.90;;
17091;SDS011;8661;45.700;4.880;2022-10-29T10:25:34;13.50;;;7.07;;
17091;SDS011;8661;45.700;4.880;2022-10-29T10:28:02;15.97;;;7.23;;
17091;SDS011;8661;45.700;4.880;2022-10-29T10:30:40;17.73;;;6.93;;
17091;SDS011;8661;45.700;4.880;2022-10-29T10:33:11;16.23;;;7.13;;
17091;SDS011;8661;45.700;4.880;2022-10-29T10:35:48;14.80;;;7.57;;
17091;SDS011;8661;45.700;4.880;2022-10-29T10:38:15;17.77;;;7.10;;
17091;SDS011;8661;45.700;4.880;2022-10-29T10:40:43;17.30;;;7.47;;
17091;SDS011;8661;45.700;4.880;2022-10-29T10:43:20;14.63;;;6.13;;
17091;SDS011;8661;45.700;4.880;2022-10-29T10:45:51;16.57;;;6.57;;
17091;SDS011;8661;45.700;4.880;2022-10-29T10:48:21;17.77;;;6.27;;
17091;SDS011;8661;45.700;4.880;2022-10-29T10:50:50;17.37;;;6.63;;
17091;SDS011;8661;45.700;4.880;2022-10-29T10:53:33;17.20;;;6.80;;
17091;SDS011;8661;45.700;4.880;2022-10-29T10:56:01;11.00;;;5.73;;
17091;SDS011;8661;45.700;4.880;2022-10-29T10:58:29;19.87;;;6.67;;
17091;SDS011;8661;45.700;4.880;2022-10-29T11:01:01;16.33;;;7.47;;
17091;SDS011;8661;45.700;4.880;2022-10-29T11:03:31;19.67;;;6.27;;
17091;SDS011;8661;45.700;4.880;2022-10-29T11:06:02;14.93;;;6.70;;
17091;SDS011;8661;45.700;4.880;2022-10-29T11:08:33;21.43;;;6.47;;
17091;SDS011;8661;45.700;4.880;2022-10-29T11:11:08;15.60;;;6.70;;
17091;SDS011;8661;45.700;4.880;2022-10-29T11:13:40;16.33;;;5.80;;
17091;SDS011;8661;45.700;4.880;2022-10-29T11:16:11;15.37;;;5.33;;
17091;SDS011;8661;45.700;4.880;2022-10-29T11:18:42;14.13;;;5.80;;
17091;SDS011;8661;45.700;4.880;2022-10-29T11:21:15;11.13;;;5.10;;
17091;SDS011;8661;45.700;4.880;2022-10-29T11:23:47;14.10;;;4.47;;
17091;SDS011;8661;45.700;4.880;2022-10-29T11:26:25;12.93;;;5.13;;
17091;SDS011;8661;45.700;4.880;2022-10-29T11:28:57;11.33;;;4.50;;
17091;SDS011;8661;45.700;4.880;2022-10-29T11:31:31;10.93;;;4.03;;
17091;SDS011;8661;45.700;4.880;2022-10-29T11:34:07;11.07;;;4.27;;
17091;SDS011;8661;45.700;4.880;2022-10-29T11:36:39;12.80;;;3.63;;
17091;SDS011;8661;45.700;4.880;2022-10-29T11:39:11;9.63;;;4.50;;
17091;SDS011;8661;45.700;4.880;2022-10-29T11:41:45;14.60;;;4.43;;
17091;SDS011;8661;45.700;4.880;2022-10-29T11:44:17;13.03;;;4.07;;
17091;SDS011;8661;45.700;4.880;2022-10-29T11:46:49;8.73;;;3.70;;
17091;SDS011;8661;45.700;4.880;2022-10-29T11:49:31;7.20;;;3.90;;
17091;SDS011;8661;45.700;4.880;2022-10-29T11:52:15;12.00;;;4.20;;
17091;SDS011;8661;45.700;4.880;2022-10-29T11:54:58;7.53;;;3.60;;
17091;SDS011;8661;45.700;4.880;2022-10-29T11:57:41;9.07;;;3.50;;
17091;SDS011;8661;45.700;4.880;2022-10-29T12:00:18;12.30;;;4.13;;
17091;SDS011;8661;45.700;4.880;2022-10-29T12:02:49;9.87;;;4.07;;
17091;SDS011;8661;45.700;4.880;2022-10-29T12:05:48;13.70;;;3.80;;
17091;SDS011;8661;45.700;4.880;2022-10-29T12:08:25;11.90;;;3.73;;
17091;SDS011;8661;45.700;4.880;2022-10-29T12:11:04;8.13;;;3.43;;
17091;SDS011;8661;45.700;4.880;2022-10-29T12:13:41;9.37;;;3.90;;
17091;SDS011;8661;45.700;4.880;2022-10-29T12:16:21;9.83;;;3.77;;
17091;SDS011;8661;45.700;4.880;2022-10-29T12:18:58;7.90;;;3.57;;
17091;SDS011;8661;45.700;4.880;2022-10-29T12:21:33;11.23;;;3.97;;
17091;SDS011;8661;45.700;4.880;2022-10-29T12:24:09;8.77;;;3.83;;
17091;SDS011;8661;45.700;4.880;2022-10-29T12:26:49;12.00;;;3.93;;
17091;SDS011;8661;45.700;4.880;2022-10-29T12:29:22;10.40;;;4.00;;
17091;SDS011;8661;45.700;4.880;2022-10-29T12:31:55;12.60;;;4.13;;
17091;SDS011;8661;45.700;4.880;2022-10-29T12:34:27;11.20;;;3.80;;
17091;SDS011;8661;45.700;4.880;2022-10-29T12:37:06;9.03;;;3.97;;
17091;SDS011;8661;45.700;4.880;2022-10-29T12:39:38;10.47;;;3.70;;
17091;SDS011;8661;45.700;4.880;2022-10-29T12:42:11;10.07;;;4.03;;
17091;SDS011;8661;45.700;4.880;2022-10-29T12:44:43;11.80;;;4.13;;
17091;SDS011;8661;45.700;4.880;2022-10-29T12:47:17;11.13;;;4.33;;
17091;SDS011;8661;45.700;4.880;2022-10-29T12:49:52;13.97;;;4.10;;
17091;SDS011;8661;45.700;4.880;2022-10-29T12:52:29;13.03;;;4.33;;
17091;SDS011;8661;45.700;4.880;2022-10-29T12:55:04;9.63;;;4.60;;
17091;SDS011;8661;45.700;4.880;2022-10-29T12:57:34;11.67;;;5.43;;
17091;SDS011;8661;45.700;4.880;2022-10-29T13:02:58;10.53;;;4.27;;
17091;SDS011;8661;45.700;4.880;2022-10-29T13:05:35;13.50;;;3.50;;
17091;SDS011;8661;45.700;4.880;2022-10-29T13:08:25;10.63;;;3.70;;
17091;SDS011;8661;45.700;4.880;2022-10-29T13:10:57;11.40;;;3.60;;
17091;SDS011;8661;45.700;4.880;2022-10-29T13:13:33;12.80;;;3.37;;
17091;SDS011;8661;45.700;4.880;2022-10-29T13:16:18;9.07;;;3.40;;
17091;SDS011;8661;45.700;4.880;2022-10-29T13:19:01;9.55;;;3.50;;
17091;SDS011;8661;45.700;4.880;2022-10-29T13:24:22;12.03;;;3.77;;
17091;SDS011;8661;45.700;4.880;2022-10-29T13:26:56;11.33;;;4.13;;
17091;SDS011;8661;45.700;4.880;2022-10-29T13:29:41;12.70;;;3.43;;
17091;SDS011;8661;45.700;4.880;2022-10-29T13:32:33;8.47;;;3.10;;
17091;SDS011;8661;45.700;4.880;2022-10-29T13:35:02;13.10;;;3.33;;
17091;SDS011;8661;45.700;4.880;2022-10-29T13:37:34;9.10;;;3.27;;
17091;SDS011;8661;45.700;4.880;2022-10-29T13:43:35;8.27;;;3.20;;
17091;SDS011;8661;45.700;4.880;2022-10-29T13:49:11;6.77;;;3.10;;
17091;SDS011;8661;45.700;4.880;2022-10-29T13:51:44;7.13;;;3.03;;
17091;SDS011;8661;45.700;4.880;2022-10-29T13:54:22;9.47;;;3.10;;
17091;SDS011;8661;45.700;4.880;2022-10-29T13:57:01;5.70;;;2.63;;
17091;SDS011;8661;45.700;4.880;2022-10-29T13:59:37;8.67;;;3.03;;
17091;SDS011;8661;45.700;4.880;2022-10-29T14:02:15;5.37;;;2.67;;
17091;SDS011;8661;45.700;4.880;2022-10-29T14:04:51;8.73;;;2.23;;
17091;SDS011;8661;45.700;4.880;2022-10-29T14:07:23;7.23;;;2.83;;
17091;SDS011;8661;45.700;4.880;2022-10-29T14:09:54;8.80;;;2.83;;
17091;SDS011;8661;45.700;4.880;2022-10-29T14:12:26;11.47;;;2.87;;
17091;SDS011;8661;45.700;4.880;2022-10-29T14:14:57;13.60;;;3.47;;
17091;SDS011;8661;45.700;4.880;2022-10-29T14:17:28;5.37;;;2.73;;
17091;SDS011;8661;45.700;4.880;2022-10-29T14:19:56;14.90;;;2.97;;
17091;SDS011;8661;45.700;4.880;2022-10-29T14:22:28;8.47;;;3.30;;
17091;SDS011;8661;45.700;4.880;2022-10-29T14:25:25;7.90;;;3.30;;
17091;SDS011;8661;45.700;4.880;2022-10-29T14:30:41;5.97;;;2.60;;
17091;SDS011;8661;45.700;4.880;2022-10-29T14:33:21;5.73;;;2.73;;
17091;SDS011;8661;45.700;4.880;2022-10-29T14:35:50;7.90;;;2.77;;
17091;SDS011;8661;45.700;4.880;2022-10-29T14:38:21;7.60;;;2.90;;
17091;SDS011;8661;45.700;4.880;2022-10-29T14:40:55;6.07;;;2.60;;
17091;SDS011;8661;45.700;4.880;2022-10-29T14:43:23;10.17;;;3.00;;
17091;SDS011;8661;45.700;4.880;2022-10-29T14:45:53;8.40;;;3.13;;
17091;SDS011;8661;45.700;4.880;2022-10-29T14:48:21;8.13;;;3.00;;
17091;SDS011;8661;45.700;4.880;2022-10-29T14:50:49;5.97;;;2.70;;
17091;SDS011;8661;45.700;4.880;2022-10-29T14:53:24;7.33;;;2.87;;
17091;SDS011;8661;45.700;4.880;2022-10-29T14:55:54;6.33;;;2.90;;
17091;SDS011;8661;45.700;4.880;2022-10-29T14:58:22;8.00;;;2.83;;
17091;SDS011;8661;45.700;4.880;2022-10-29T15:00:53;8.07;;;2.70;;
17091;SDS011;8661;45.700;4.880;2022-10-29T15:03:22;12.13;;;2.73;;
17091;SDS011;8661;45.700;4.880;2022-10-29T15:05:55;9.67;;;2.80;;
17091;SDS011;8661;45.700;4.880;2022-10-29T15:08:37;10.40;;;3.17;;
17091;SDS011;8661;45.700;4.880;2022-10-29T15:11:05;9.93;;;3.07;;
17091;SDS011;8661;45.700;4.880;2022-10-29T15:13:56;9.63;;;3.07;;
17091;SDS011;8661;45.700;4.880;2022-10-29T15:16:23;9.80;;;3.00;;
17091;SDS011;8661;45.700;4.880;2022-10-29T15:18:51;9.70;;;3.23;;
17091;SDS011;8661;45.700;4.880;2022-10-29T15:21:21;8.27;;;2.70;;
17091;SDS011;8661;45.700;4.880;2022-10-29T15:23:51;6.93;;;2.47;;
17091;SDS011;8661;45.700;4.880;2022-10-29T15:26:21;10.97;;;3.37;;
17091;SDS011;8661;45.700;4.880;2022-10-29T15:28:48;5.60;;;2.77;;